Baldwinville, Massachusetts
Current Conditions -  °F | °C
As of 11:52 AM on Tuesday 21 Oct 2014 (Local Time) from KORE Reporting Station
Overcast Overcast  
Wind Chill: 13°   Ceiling: 8000
Heat Index: 13°   Visibility: 10mi
Dew Point:   Wind: 0mph
Humidity: 69%   Direction: NA
Pressure: 29.95"   Gusts: NA
Location:  42.62°N, 72.08°W
Report Text: KORE 211552Z AUTO 00000KT 10SM BKN080 OVC100 13/08 A2995 RMK AO2 SLP144 T01330078
Loading
Personal Weather Stations






























Interactive Weather Map
Tropical Storm Tracking
New forecast layout! Learn more

10-Day Weather Forecast

Advertisements
Track Severe Weather on mobile